Time;durP1;ratioP1;P1;durP2;ratioP2;P2;SDS_P1;SDS_P2;PMS_P1;PMS_P2;Temp;Humidity;BMP_temperature;BMP_pressure;BME280_temperature;BME280_humidity;BME280_pressure;Samples;Min_cycle;Max_cycle;Signal;HPM_P1;HPM_P2
2023/05/17 00:00:11;;;;;;;4.00;1.13;;;;;;;9.91;63.12;99075.59;5008573;28;103118;-73
2023/05/17 00:02:39;;;;;;;1.97;0.90;;;;;;;9.94;62.78;99079.00;5012940;28;103038;-74
2023/05/17 00:05:08;;;;;;;2.90;1.20;;;;;;;9.74;63.69;99082.91;5007580;28;107150;-74
2023/05/17 00:07:38;;;;;;;2.60;1.20;;;;;;;9.93;63.07;99082.56;5006601;28;102999;-74
2023/05/17 00:10:07;;;;;;;2.10;0.90;;;;;;;10.04;63.35;99088.88;4988120;28;102774;-74
2023/05/17 00:12:36;;;;;;;1.57;0.90;;;;;;;10.05;64.04;99084.44;5010327;28;102894;-74
2023/05/17 00:15:05;;;;;;;1.97;1.00;;;;;;;9.99;64.23;99083.03;4978791;28;106188;-74
2023/05/17 00:17:36;;;;;;;3.93;1.00;;;;;;;9.86;65.28;99084.75;4992599;28;105871;-74
2023/05/17 00:20:05;;;;;;;1.57;0.80;;;;;;;9.91;65.07;99086.16;5003845;28;102548;-73
2023/05/17 00:22:33;;;;;;;1.97;1.00;;;;;;;9.88;64.56;99091.63;5009161;28;102809;-74
2023/05/17 00:25:03;;;;;;;2.77;1.10;;;;;;;9.86;64.80;99096.16;5000642;28;103268;-73
2023/05/17 00:27:31;;;;;;;1.50;1.00;;;;;;;9.66;64.77;99093.91;4999186;28;105268;-74
2023/05/17 00:30:03;;;;;;;3.67;1.00;;;;;;;9.53;64.95;99100.91;4987193;28;102842;-73
2023/05/17 00:32:32;;;;;;;3.30;1.23;;;;;;;9.68;65.55;99099.13;4990194;28;102694;-73
2023/05/17 00:35:00;;;;;;;2.33;1.17;;;;;;;9.61;65.11;99103.91;4987246;28;106139;-73
2023/05/17 00:37:28;;;;;;;1.77;1.10;;;;;;;9.52;66.17;99099.19;4999918;28;103048;-74
2023/05/17 00:39:56;;;;;;;1.80;1.30;;;;;;;9.66;65.97;99103.63;4991628;28;103032;-73
2023/05/17 00:42:24;;;;;;;2.47;0.97;;;;;;;9.49;66.21;99109.94;4998698;28;102811;-73
2023/05/17 00:44:52;;;;;;;2.93;1.33;;;;;;;9.48;66.50;99107.41;4993273;28;103198;-74
2023/05/17 00:47:21;;;;;;;2.17;1.00;;;;;;;9.55;66.57;99106.06;5005176;28;103220;-73
2023/05/17 00:49:51;;;;;;;2.00;1.00;;;;;;;9.66;66.86;99122.94;5004745;28;103153;-73
2023/05/17 00:52:19;;;;;;;3.60;1.30;;;;;;;9.60;67.26;99117.22;4990313;28;103065;-72
2023/05/17 00:54:47;;;;;;;3.47;1.27;;;;;;;9.51;67.47;99115.97;5009833;28;104042;-73
2023/05/17 00:57:16;;;;;;;2.53;1.57;;;;;;;9.44;67.94;99121.72;4994649;28;103301;-73
2023/05/17 00:59:44;;;;;;;2.83;1.57;;;;;;;9.37;68.88;99120.41;4989966;27;103856;-73
2023/05/17 01:02:12;;;;;;;4.03;1.97;;;;;;;9.11;70.58;99124.59;5002254;28;102771;-73
2023/05/17 01:04:42;;;;;;;4.33;1.87;;;;;;;9.18;70.32;99112.72;4995328;28;103259;-73
2023/05/17 01:07:10;;;;;;;4.33;2.00;;;;;;;9.21;70.41;99131.00;4984735;28;111177;-73
2023/05/17 01:09:38;;;;;;;4.27;2.10;;;;;;;9.05;71.52;99123.16;5006786;28;104148;-74
2023/05/17 01:12:13;;;;;;;4.23;1.50;;;;;;;8.96;72.45;99128.97;5008843;28;102815;-73
2023/05/17 01:14:50;;;;;;;4.53;2.13;;;;;;;8.70;72.80;99125.22;4990186;28;108673;-73
2023/05/17 01:17:26;;;;;;;2.93;1.33;;;;;;;8.90;72.38;99129.34;4984765;28;103154;-73
2023/05/17 01:20:05;;;;;;;2.43;1.60;;;;;;;8.44;74.40;99136.44;4994104;28;102608;-73
2023/05/17 01:22:43;;;;;;;2.30;1.67;;;;;;;8.73;73.50;99135.59;4988423;28;102753;-73
2023/05/17 01:25:36;;;;;;;2.67;1.57;;;;;;;8.41;74.81;99141.00;5000832;28;103285;-73
2023/05/17 01:28:07;;;;;;;3.43;1.70;;;;;;;8.67;74.03;99140.38;4998126;28;104394;-73
2023/05/17 01:30:37;;;;;;;3.20;1.70;;;;;;;8.83;73.21;99141.19;4996247;28;103997;-73
2023/05/17 01:33:06;;;;;;;1.60;1.27;;;;;;;8.87;72.95;99132.16;4984253;28;104537;-73
2023/05/17 01:35:34;;;;;;;3.57;1.47;;;;;;;8.80;73.23;99141.38;4990917;28;103358;-73
2023/05/17 01:38:02;;;;;;;1.97;1.10;;;;;;;8.86;73.31;99135.75;5001886;28;103512;-73
2023/05/17 01:40:35;;;;;;;3.43;1.50;;;;;;;8.79;73.65;99133.53;4988500;28;102726;-73
2023/05/17 01:43:13;;;;;;;2.67;1.20;;;;;;;8.84;72.74;99136.78;5008030;28;102917;-73
2023/05/17 01:45:46;;;;;;;1.70;1.20;;;;;;;8.88;72.97;99135.63;5007375;28;103296;-74
2023/05/17 01:48:20;;;;;;;1.93;1.17;;;;;;;8.93;72.27;99138.84;4993269;28;109203;-73
2023/05/17 01:50:50;;;;;;;3.23;1.30;;;;;;;8.93;72.10;99131.78;5002947;28;103021;-73
2023/05/17 01:53:23;;;;;;;2.57;1.23;;;;;;;8.85;72.49;99134.03;5006696;28;103383;-74
2023/05/17 01:55:54;;;;;;;2.53;1.40;;;;;;;8.90;72.29;99141.69;5005189;28;103275;-73
2023/05/17 01:58:25;;;;;;;4.30;1.23;;;;;;;8.73;73.53;99148.75;5003380;28;113858;-73
2023/05/17 02:00:56;;;;;;;3.37;1.20;;;;;;;8.66;74.97;99147.44;4993223;28;102685;-74
2023/05/17 02:03:24;;;;;;;3.67;1.33;;;;;;;8.58;74.12;99154.94;5004818;28;102828;-73
2023/05/17 02:05:53;;;;;;;3.00;1.20;;;;;;;8.66;73.85;99150.06;4989653;28;110321;-73
2023/05/17 02:08:20;;;;;;;2.13;1.37;;;;;;;8.54;74.29;99155.19;4999652;28;105809;-73
2023/05/17 02:10:51;;;;;;;3.23;1.43;;;;;;;8.55;74.42;99155.09;4994446;28;102661;-73
2023/05/17 02:13:19;;;;;;;3.03;1.50;;;;;;;8.58;74.66;99161.97;4985698;28;102762;-73
2023/05/17 02:15:49;;;;;;;2.57;1.40;;;;;;;8.47;75.16;99164.38;5005239;28;103253;-74
2023/05/17 02:18:17;;;;;;;3.13;1.47;;;;;;;8.30;75.63;99170.59;5008753;28;107747;-73
2023/05/17 02:20:46;;;;;;;3.20;1.50;;;;;;;8.12;76.08;99159.25;5005759;28;102819;-74
2023/05/17 02:23:14;;;;;;;3.67;1.70;;;;;;;8.31;75.49;99169.63;5006126;28;103071;-74
2023/05/17 02:25:45;;;;;;;2.77;1.70;;;;;;;8.38;75.19;99172.78;4990136;28;112561;-73
2023/05/17 02:28:13;;;;;;;3.67;1.53;;;;;;;8.40;75.21;99171.75;4990116;28;103425;-74
2023/05/17 02:30:43;;;;;;;2.70;1.60;;;;;;;8.39;75.65;99167.44;4989972;28;102708;-74
2023/05/17 02:33:14;;;;;;;3.90;1.60;;;;;;;8.49;74.72;99173.88;4975279;28;102742;-73
2023/05/17 02:35:45;;;;;;;4.67;1.70;;;;;;;8.46;74.41;99176.69;4992368;28;103352;-73
2023/05/17 02:38:13;;;;;;;3.03;1.80;;;;;;;8.47;74.59;99169.63;4988713;28;103298;-73
2023/05/17 02:40:44;;;;;;;3.60;1.30;;;;;;;8.53;74.68;99171.94;5005013;28;102643;-73
2023/05/17 02:43:11;;;;;;;2.53;1.30;;;;;;;8.53;74.52;99175.38;4993555;28;102619;-73
2023/05/17 02:45:39;;;;;;;1.90;1.10;;;;;;;8.56;74.06;99180.47;4992956;28;103355;-74
2023/05/17 02:48:09;;;;;;;2.37;1.30;;;;;;;8.56;73.62;99180.47;5001669;28;103074;-74
2023/05/17 02:50:39;;;;;;;3.77;1.27;;;;;;;8.57;73.90;99182.19;4994076;28;102732;-73
2023/05/17 02:53:07;;;;;;;1.50;1.40;;;;;;;8.58;73.22;99183.91;5009690;28;102725;-74
2023/05/17 02:55:36;;;;;;;1.80;1.13;;;;;;;8.58;73.05;99170.75;4983417;28;106685;-74
2023/05/17 02:58:04;;;;;;;1.70;1.00;;;;;;;8.69;72.52;99176.25;4991311;28;102769;-74
2023/05/17 03:00:33;;;;;;;1.97;1.27;;;;;;;8.72;72.12;99183.97;5006004;28;103077;-75
2023/05/17 03:03:01;;;;;;;2.13;1.30;;;;;;;8.72;71.95;99181.34;4987967;28;104886;-74
2023/05/17 03:05:30;;;;;;;3.77;1.50;;;;;;;8.66;72.30;99176.41;5001300;28;112232;-73
2023/05/17 03:07:59;;;;;;;1.70;1.20;;;;;;;8.54;72.69;99179.72;5004577;28;103115;-72
2023/05/17 03:10:27;;;;;;;3.73;1.30;;;;;;;8.48;73.00;99182.72;5000924;28;103704;-73
2023/05/17 03:12:55;;;;;;;2.00;1.10;;;;;;;8.49;72.83;99179.16;5008329;28;102758;-73
2023/05/17 03:15:28;;;;;;;2.70;1.00;;;;;;;8.51;72.77;99174.63;4990098;28;103676;-73
2023/05/17 03:17:57;;;;;;;2.63;1.50;;;;;;;8.46;72.48;99179.31;4986881;28;103620;-73
2023/05/17 03:20:26;;;;;;;2.27;1.40;;;;;;;8.10;73.80;99186.59;4989592;28;102600;-73
2023/05/17 03:22:54;;;;;;;2.70;1.50;;;;;;;8.19;74.76;99194.00;5007249;28;102706;-73
2023/05/17 03:25:23;;;;;;;1.30;1.00;;;;;;;8.27;74.22;99190.94;4993674;28;103398;-74
2023/05/17 03:27:51;;;;;;;2.87;1.07;;;;;;;8.33;73.74;99194.13;4976741;28;105779;-74
2023/05/17 03:30:19;;;;;;;1.90;1.20;;;;;;;8.35;73.70;99205.41;5008537;28;104062;-72
2023/05/17 03:32:48;;;;;;;1.73;1.20;;;;;;;8.35;73.72;99202.75;4997283;28;103248;-74
2023/05/17 03:35:16;;;;;;;4.97;1.30;;;;;;;8.35;73.89;99196.66;4993071;28;103215;-74
2023/05/17 03:37:48;;;;;;;6.20;1.67;;;;;;;8.20;73.85;99193.03;4994387;28;107555;-72
2023/05/17 03:40:16;;;;;;;3.87;2.00;;;;;;;8.22;73.87;99204.34;4990246;28;102642;-72
2023/05/17 03:42:46;;;;;;;4.07;1.90;;;;;;;8.63;72.19;99202.94;4991220;28;102825;-73
2023/05/17 03:45:15;;;;;;;3.72;1.70;;;;;;;9.03;70.73;99205.91;4992210;28;103417;-71
2023/05/17 03:47:43;;;;;;;2.47;1.70;;;;;;;9.27;69.91;99204.47;4985277;28;103324;-70
2023/05/17 03:50:13;;;;;;;2.78;1.60;;;;;;;9.48;69.32;99203.22;4987053;28;102661;-71
2023/05/17 03:52:41;;;;;;;3.60;1.80;;;;;;;9.60;68.02;99206.91;4988299;28;102969;-70
2023/05/17 03:55:13;;;;;;;2.95;1.70;;;;;;;9.39;68.63;99209.03;4996027;28;103476;-71
2023/05/17 03:57:41;;;;;;;3.58;1.90;;;;;;;9.60;68.17;99218.28;5001377;28;103316;-71
2023/05/17 04:00:12;;;;;;;5.50;1.67;;;;;;;9.68;68.15;99216.06;4982094;28;102958;-71
2023/05/17 04:02:43;;;;;;;4.93;2.00;;;;;;;9.66;68.26;99207.34;5002394;28;102604;-71
2023/05/17 04:05:13;;;;;;;2.45;1.38;;;;;;;9.58;68.85;99220.16;4993173;28;108319;-73
2023/05/17 04:07:45;;;;;;;3.45;1.63;;;;;;;9.70;68.48;99224.72;5000854;28;115832;-73
2023/05/17 04:10:13;;;;;;;3.03;1.60;;;;;;;9.74;68.33;99225.38;4986743;28;103008;-73
2023/05/17 04:12:41;;;;;;;2.20;1.33;;;;;;;9.62;69.03;99221.69;5001690;28;103031;-73
2023/05/17 04:15:11;;;;;;;2.30;1.50;;;;;;;9.81;68.59;99231.97;4973966;28;106205;-73
2023/05/17 04:17:41;;;;;;;3.83;2.20;;;;;;;9.54;68.34;99228.38;4976998;28;105240;-73
2023/05/17 04:20:11;;;;;;;3.65;2.00;;;;;;;9.49;69.40;99223.34;4980547;28;103679;-71
2023/05/17 04:22:42;;;;;;;4.63;2.08;;;;;;;9.30;68.63;99239.41;4985273;28;102998;-71
2023/05/17 04:25:11;;;;;;;2.37;1.67;;;;;;;9.57;69.39;99241.38;5004209;28;104344;-71
2023/05/17 04:27:39;;;;;;;4.03;2.00;;;;;;;9.20;69.71;99245.31;4990346;28;105826;-70
2023/05/17 04:30:09;;;;;;;3.60;1.90;;;;;;;9.39;70.29;99253.00;4993004;28;103134;-71
2023/05/17 04:32:38;;;;;;;2.20;1.70;;;;;;;9.45;70.55;99252.66;4984491;28;103142;-71
2023/05/17 04:35:07;;;;;;;6.82;1.90;;;;;;;9.40;70.81;99257.34;4982629;28;105323;-71
2023/05/17 04:37:38;;;;;;;2.93;1.97;;;;;;;9.27;71.65;99262.47;4986425;28;103137;-71
2023/05/17 04:40:19;;;;;;;4.70;1.93;;;;;;;9.13;71.24;99254.50;4985250;28;103130;-71
2023/05/17 04:42:50;;;;;;;3.90;2.17;;;;;;;9.11;71.39;99256.41;4997889;28;102900;-71
2023/05/17 04:45:19;;;;;;;4.80;2.00;;;;;;;9.20;71.61;99262.00;5000155;28;103590;-71
2023/05/17 04:47:51;;;;;;;4.13;1.88;;;;;;;9.36;71.36;99266.38;4974605;28;104344;-71
2023/05/17 04:50:20;;;;;;;5.00;2.37;;;;;;;9.04;71.87;99270.88;4988073;28;103149;-71
2023/05/17 04:52:48;;;;;;;4.88;2.10;;;;;;;9.12;71.94;99272.09;4993074;28;102812;-71
2023/05/17 04:55:16;;;;;;;2.85;1.90;;;;;;;9.35;71.70;99265.50;4985364;28;103279;-71
2023/05/17 04:57:44;;;;;;;5.18;2.10;;;;;;;9.65;70.36;99274.28;4985992;28;111234;-71
2023/05/17 05:00:15;;;;;;;6.05;2.60;;;;;;;9.69;69.58;99267.84;4988040;28;103045;-71
2023/05/17 05:02:50;;;;;;;5.90;2.30;;;;;;;9.68;69.96;99274.09;4995709;28;102952;-70
2023/05/17 05:05:20;;;;;;;4.00;2.03;;;;;;;9.78;69.64;99280.50;4970231;28;105965;-73
2023/05/17 05:07:48;;;;;;;3.85;1.95;;;;;;;10.02;68.83;99283.44;4986114;28;103141;-73
2023/05/17 05:10:17;;;;;;;4.38;1.90;;;;;;;10.14;68.36;99284.53;5000428;28;102714;-70
2023/05/17 05:12:45;;;;;;;4.68;2.15;;;;;;;10.15;68.54;99292.38;4980223;28;103061;-70
2023/05/17 05:15:13;;;;;;;4.37;2.20;;;;;;;10.23;68.35;99297.16;4977785;28;103477;-70
2023/05/17 05:17:49;;;;;;;3.67;1.60;;;;;;;10.21;69.82;99293.78;4975505;28;103099;-70
2023/05/17 05:20:18;;;;;;;3.17;1.90;;;;;;;10.29;68.98;99297.66;5002232;28;102800;-70
2023/05/17 05:22:46;;;;;;;2.50;1.67;;;;;;;10.59;68.54;99292.25;4984121;28;103066;-71
2023/05/17 05:25:16;;;;;;;2.57;1.80;;;;;;;10.48;67.53;99294.69;4991453;28;103799;-70
2023/05/17 05:27:47;;;;;;;2.70;1.88;;;;;;;10.53;67.81;99295.25;4984487;28;108223;-69
2023/05/17 05:30:20;;;;;;;3.03;1.75;;;;;;;10.51;68.10;99304.22;4999360;28;102878;-70
2023/05/17 05:32:52;;;;;;;5.57;1.70;;;;;;;10.70;68.00;99302.97;5000887;28;102995;-69
2023/05/17 05:35:25;;;;;;;2.30;1.48;;;;;;;10.80;67.89;99309.41;5000581;28;103441;-70
2023/05/17 05:37:53;;;;;;;2.87;1.87;;;;;;;11.01;67.16;99308.00;4999356;28;103405;-70
2023/05/17 05:40:21;;;;;;;4.13;1.80;;;;;;;10.90;67.42;99310.50;5006864;28;102553;-70
2023/05/17 05:42:50;;;;;;;5.77;2.20;;;;;;;10.67;66.46;99307.59;4997992;28;102707;-70
2023/05/17 05:45:18;;;;;;;4.30;2.00;;;;;;;10.69;65.75;99311.88;4992192;28;104034;-69
2023/05/17 05:47:51;;;;;;;4.15;2.10;;;;;;;10.52;67.18;99314.72;4984122;28;103225;-70
2023/05/17 05:50:20;;;;;;;3.37;1.80;;;;;;;10.53;68.50;99316.41;5012535;28;102846;-70
2023/05/17 05:52:50;;;;;;;3.53;2.10;;;;;;;10.80;66.92;99319.97;4993832;28;103131;-70
2023/05/17 05:55:21;;;;;;;5.35;2.20;;;;;;;11.00;65.56;99322.16;4987074;28;103409;-70
2023/05/17 05:57:49;;;;;;;3.70;2.17;;;;;;;10.79;66.63;99320.91;5006059;28;103178;-70
2023/05/17 06:00:18;;;;;;;3.85;2.10;;;;;;;10.83;66.42;99324.22;4997463;28;102687;-71
2023/05/17 06:02:46;;;;;;;4.15;1.75;;;;;;;10.97;66.86;99332.97;5010435;28;102750;-70
2023/05/17 06:05:15;;;;;;;6.05;2.35;;;;;;;11.03;66.90;99327.25;5004628;28;103476;-70
2023/05/17 06:07:43;;;;;;;6.20;2.65;;;;;;;10.92;66.24;99334.16;4998089;28;108887;-70
2023/05/17 06:10:11;;;;;;;5.90;2.22;;;;;;;10.93;67.00;99344.66;5010612;28;102721;-70
2023/05/17 06:12:39;;;;;;;3.87;2.13;;;;;;;11.26;66.61;99343.44;5013627;28;105379;-70
2023/05/17 06:15:08;;;;;;;5.03;2.25;;;;;;;11.24;66.89;99345.34;5002833;28;103465;-70
2023/05/17 06:17:36;;;;;;;4.78;2.30;;;;;;;11.35;65.86;99348.13;4990310;28;104216;-70
2023/05/17 06:20:05;;;;;;;5.40;2.40;;;;;;;10.96;67.24;99351.56;5007638;28;102685;-71
2023/05/17 06:22:34;;;;;;;5.28;2.30;;;;;;;11.00;67.72;99351.25;5004284;28;103925;-71
2023/05/17 06:25:02;;;;;;;5.38;2.60;;;;;;;10.81;66.92;99358.66;4996295;28;103032;-70
2023/05/17 06:27:31;;;;;;;6.65;2.40;;;;;;;10.83;68.13;99346.22;5007159;28;103087;-70
2023/05/17 06:30:00;;;;;;;5.40;2.70;;;;;;;10.89;67.10;99352.91;5002422;28;102962;-71
2023/05/17 06:32:29;;;;;;;5.13;2.63;;;;;;;10.57;67.96;99357.53;5009341;28;103283;-70
2023/05/17 06:34:57;;;;;;;4.97;2.58;;;;;;;10.70;66.73;99350.53;5008827;28;103720;-70
2023/05/17 06:37:25;;;;;;;5.72;2.58;;;;;;;11.09;67.05;99354.28;4986068;28;115871;-69
2023/05/17 06:40:02;;;;;;;4.13;2.50;;;;;;;10.66;66.84;99366.69;5003564;28;102608;-70
2023/05/17 06:42:41;;;;;;;3.47;2.20;;;;;;;11.31;65.39;99363.34;5004175;28;103169;-70
2023/05/17 06:45:10;;;;;;;4.70;2.67;;;;;;;11.26;66.04;99359.31;5001307;28;107611;-71
2023/05/17 06:47:41;;;;;;;7.20;2.80;;;;;;;11.54;64.21;99353.91;5004295;28;103339;-71
2023/05/17 06:50:10;;;;;;;5.33;2.87;;;;;;;11.02;65.86;99352.03;5004489;28;102982;-70
2023/05/17 06:52:38;;;;;;;5.82;3.00;;;;;;;10.89;66.98;99361.66;4989927;28;102693;-70
2023/05/17 06:55:08;;;;;;;5.23;2.80;;;;;;;10.85;66.76;99362.81;5006078;28;103226;-70
2023/05/17 06:57:36;;;;;;;5.72;2.42;;;;;;;11.23;66.40;99364.81;4988930;28;103907;-70
2023/05/17 07:00:09;;;;;;;4.30;2.95;;;;;;;11.24;66.53;99363.84;4993489;28;102807;-70
2023/05/17 07:02:37;;;;;;;6.07;2.80;;;;;;;10.97;67.02;99364.69;4992218;28;102871;-70
2023/05/17 07:05:06;;;;;;;5.88;2.90;;;;;;;11.39;65.65;99354.94;4998001;28;103367;-70
2023/05/17 07:07:34;;;;;;;5.40;3.05;;;;;;;11.12;68.16;99361.97;4985522;28;104416;-71
2023/05/17 07:10:02;;;;;;;5.38;2.92;;;;;;;11.54;64.75;99369.78;4993427;28;102766;-70
2023/05/17 07:12:31;;;;;;;5.97;2.75;;;;;;;10.76;68.31;99360.75;5006596;28;102917;-70
2023/05/17 07:15:00;;;;;;;5.72;3.08;;;;;;;11.49;67.99;99367.47;4988922;28;103477;-70
2023/05/17 07:17:29;;;;;;;8.93;3.05;;;;;;;11.68;66.68;99366.25;5000668;28;103104;-70
2023/05/17 07:19:57;;;;;;;4.57;2.60;;;;;;;12.32;64.94;99365.44;5007662;28;102617;-70
2023/05/17 07:22:25;;;;;;;7.25;3.00;;;;;;;11.78;64.82;99367.38;4995785;28;102713;-70
2023/05/17 07:24:53;;;;;;;5.63;3.50;;;;;;;12.17;65.47;99373.47;5002655;28;103399;-70
2023/05/17 07:27:21;;;;;;;4.40;2.75;;;;;;;12.80;64.34;99370.78;5002343;28;103253;-70
2023/05/17 07:29:50;;;;;;;5.47;3.20;;;;;;;12.20;63.76;99370.63;4992169;28;102939;-70
2023/05/17 07:32:18;;;;;;;5.10;3.10;;;;;;;12.64;63.23;99369.31;5005096;28;103575;-70
2023/05/17 07:34:46;;;;;;;5.53;3.05;;;;;;;12.83;62.52;99364.41;4996741;28;102666;-70
2023/05/17 07:37:16;;;;;;;6.03;3.25;;;;;;;12.17;62.52;99367.31;4999583;28;103088;-70
2023/05/17 07:39:44;;;;;;;5.40;3.00;;;;;;;12.46;61.83;99365.31;5002777;28;104367;-70
2023/05/17 07:42:12;;;;;;;7.53;3.55;;;;;;;12.54;63.61;99369.13;4999416;28;102651;-70
2023/05/17 07:44:40;;;;;;;7.30;3.50;;;;;;;13.09;63.47;99366.09;5006582;28;103566;-70
2023/05/17 07:47:09;;;;;;;5.07;3.20;;;;;;;13.70;59.38;99362.44;4999204;28;105091;-70
2023/05/17 07:49:37;;;;;;;5.53;3.10;;;;;;;12.38;61.93;99372.97;5006282;28;102659;-70
2023/05/17 07:52:05;;;;;;;5.38;3.20;;;;;;;13.34;60.41;99362.50;5005908;28;103060;-70
2023/05/17 07:54:34;;;;;;;6.28;3.28;;;;;;;13.14;60.42;99363.94;4989151;28;103479;-70
2023/05/17 07:57:05;;;;;;;6.32;3.28;;;;;;;13.39;59.94;99364.84;5001029;28;103181;-70
2023/05/17 07:59:33;;;;;;;6.25;3.50;;;;;;;12.73;62.08;99374.00;4989342;28;102963;-72
2023/05/17 08:02:01;;;;;;;7.38;3.53;;;;;;;12.94;60.82;99367.16;4985897;28;103806;-70
2023/05/17 08:04:30;;;;;;;5.07;3.38;;;;;;;13.30;60.66;99367.19;5004766;28;108275;-70
2023/05/17 08:06:59;;;;;;;5.60;3.33;;;;;;;13.27;60.91;99364.78;4992595;28;102713;-70
2023/05/17 08:09:27;;;;;;;6.37;3.40;;;;;;;13.35;60.87;99367.72;4995123;27;102924;-70
2023/05/17 08:11:55;;;;;;;4.88;3.00;;;;;;;13.06;61.62;99366.28;5008353;28;102937;-71
2023/05/17 08:14:25;;;;;;;5.72;3.03;;;;;;;13.51;60.35;99356.81;5000926;28;103214;-70
2023/05/17 08:16:53;;;;;;;5.57;3.25;;;;;;;13.51;60.03;99359.47;4993937;28;104397;-71
2023/05/17 08:19:21;;;;;;;6.30;3.55;;;;;;;13.75;58.91;99359.47;4995717;28;103090;-71
2023/05/17 08:21:51;;;;;;;4.80;3.60;;;;;;;14.82;58.31;99358.25;4996900;28;102990;-70
2023/05/17 08:24:19;;;;;;;6.07;3.40;;;;;;;14.93;56.28;99369.69;5002481;28;103423;-71
2023/05/17 08:26:47;;;;;;;7.22;4.03;;;;;;;13.67;56.97;99362.66;4984335;28;106052;-71
2023/05/17 08:29:14;;;;;;;4.87;3.33;;;;;;;14.37;58.62;99360.84;4999175;28;103193;-70
2023/05/17 08:31:42;;;;;;;5.90;3.30;;;;;;;13.82;57.42;99366.84;4999691;28;102695;-70
2023/05/17 08:34:11;;;;;;;6.07;3.58;;;;;;;14.31;56.28;99363.97;5004858;28;103296;-70
2023/05/17 08:36:41;;;;;;;5.35;3.35;;;;;;;14.18;56.47;99367.66;4984038;28;106132;-71
2023/05/17 08:39:11;;;;;;;8.60;3.75;;;;;;;14.26;57.38;99362.63;5001295;28;102619;-71
2023/05/17 08:41:39;;;;;;;5.88;3.33;;;;;;;13.74;57.83;99368.38;4998889;28;102767;-72
2023/05/17 08:44:08;;;;;;;4.68;3.40;;;;;;;14.95;55.21;99364.25;4989256;28;106245;-69
2023/05/17 08:46:38;;;;;;;5.63;3.40;;;;;;;15.29;53.58;99368.56;5002502;28;102665;-70
2023/05/17 08:49:11;;;;;;;5.82;3.50;;;;;;;13.57;57.11;99382.06;4999138;28;102907;-69
2023/05/17 08:51:41;;;;;;;5.05;3.38;;;;;;;14.43;56.31;99368.34;5004418;28;103023;-69
2023/05/17 08:54:09;;;;;;;5.82;3.33;;;;;;;14.33;55.94;99361.22;4998485;28;112440;-69
2023/05/17 08:56:42;;;;;;;5.75;3.53;;;;;;;14.72;54.84;99362.56;5000072;28;113521;-69
2023/05/17 08:59:10;;;;;;;5.53;3.28;;;;;;;15.52;53.04;99364.91;5000308;28;103175;-69
2023/05/17 09:01:41;;;;;;;6.13;3.33;;;;;;;15.31;53.92;99361.31;5003872;28;104373;-69
2023/05/17 09:04:09;;;;;;;5.47;3.43;;;;;;;15.53;52.49;99360.41;5002289;28;114086;-69
2023/05/17 09:06:40;;;;;;;5.28;3.38;;;;;;;14.94;54.06;99367.88;4986823;28;104199;-69
2023/05/17 09:09:08;;;;;;;5.67;3.20;;;;;;;14.25;54.12;99364.44;5002707;28;102719;-69
2023/05/17 09:11:37;;;;;;;5.25;3.20;;;;;;;14.34;55.35;99366.41;4999300;28;103846;-70
2023/05/17 09:14:06;;;;;;;5.60;3.50;;;;;;;15.48;52.24;99368.81;5007123;28;103423;-69
2023/05/17 09:16:37;;;;;;;5.53;3.27;;;;;;;15.72;54.10;99365.91;4993075;28;103318;-69
2023/05/17 09:19:07;;;;;;;5.53;3.40;;;;;;;15.37;52.76;99374.13;5006472;28;102906;-69
2023/05/17 09:21:36;;;;;;;4.40;3.10;;;;;;;17.68;51.57;99363.00;4982517;28;103131;-70
2023/05/17 09:24:05;;;;;;;4.95;3.15;;;;;;;17.34;46.96;99375.84;5005933;28;104029;-69
2023/05/17 09:26:40;;;;;;;6.00;3.33;;;;;;;16.50;50.22;99371.69;5007299;28;103481;-69
2023/05/17 09:29:12;;;;;;;5.77;3.37;;;;;;;16.44;47.31;99369.56;5004658;28;103403;-68
2023/05/17 09:31:40;;;;;;;5.23;3.80;;;;;;;16.50;49.09;99361.03;4983153;28;103148;-69
2023/05/17 09:34:11;;;;;;;5.80;3.55;;;;;;;17.38;49.38;99366.56;4977127;28;105736;-70
2023/05/17 09:36:43;;;;;;;5.20;3.60;;;;;;;16.92;49.84;99367.16;4988120;28;104344;-69
2023/05/17 09:39:13;;;;;;;4.90;3.30;;;;;;;16.96;50.12;99367.69;5003654;28;102971;-69
2023/05/17 09:41:44;;;;;;;4.85;3.42;;;;;;;18.31;47.31;99356.19;5000615;28;102636;-69
2023/05/17 09:48:38;;;;;;;5.05;3.30;;;;;;;15.27;48.00;99370.50;4990597;28;103529;-69
2023/05/17 09:51:06;;;;;;;5.13;3.28;;;;;;;15.38;48.50;99367.81;4982336;28;102739;-69
2023/05/17 09:53:38;;;;;;;5.32;3.58;;;;;;;16.17;47.77;99379.88;4986849;28;103011;-69
2023/05/17 09:56:07;;;;;;;4.38;3.47;;;;;;;17.17;47.05;99365.81;5000444;28;102977;-69
2023/05/17 09:58:37;;;;;;;4.32;3.08;;;;;;;18.70;44.08;99363.16;4971897;28;104165;-69
2023/05/17 10:01:07;;;;;;;5.35;3.55;;;;;;;16.81;45.27;99352.06;5003512;28;103053;-69
2023/05/17 10:03:36;;;;;;;5.85;3.70;;;;;;;16.94;48.25;99365.19;4982394;28;102784;-70
2023/05/17 10:06:09;;;;;;;5.18;3.40;;;;;;;15.91;48.46;99360.78;5000427;28;103410;-69
2023/05/17 10:08:51;;;;;;;4.47;3.27;;;;;;;16.39;48.23;99365.59;4999653;28;105566;-69
2023/05/17 10:11:24;;;;;;;5.88;3.90;;;;;;;14.72;50.90;99373.22;5004083;28;102795;-69
2023/05/17 10:14:03;;;;;;;4.47;3.50;;;;;;;14.83;50.62;99371.41;4987413;28;103961;-69
2023/05/17 10:16:33;;;;;;;5.63;3.45;;;;;;;15.76;49.44;99377.16;4998483;28;103267;-69
2023/05/17 10:19:02;;;;;;;7.05;3.80;;;;;;;15.86;49.83;99362.13;4995665;28;103165;-69
2023/05/17 10:21:31;;;;;;;5.57;3.33;;;;;;;16.09;49.33;99364.53;5001218;28;102702;-69
2023/05/17 10:24:01;;;;;;;6.72;3.65;;;;;;;15.42;49.98;99371.91;4999914;28;102793;-70
2023/05/17 10:26:29;;;;;;;5.75;3.50;;;;;;;16.39;48.67;99371.78;5004645;28;103191;-69
2023/05/17 10:29:00;;;;;;;6.63;3.47;;;;;;;16.40;48.80;99370.78;5005517;28;103391;-69
2023/05/17 10:31:30;;;;;;;6.03;3.53;;;;;;;14.77;49.24;99373.69;4996919;28;103278;-69
2023/05/17 10:33:59;;;;;;;5.82;3.70;;;;;;;14.75;50.91;99375.63;4991981;28;102669;-69
2023/05/17 10:36:27;;;;;;;6.13;3.60;;;;;;;15.79;49.65;99366.25;4991815;28;109920;-68
2023/05/17 10:38:55;;;;;;;4.38;3.40;;;;;;;15.84;48.00;99369.38;5006284;28;103487;-76
2023/05/17 10:41:27;;;;;;;4.32;3.80;;;;;;;15.61;48.76;99372.13;4998990;28;102690;-77
2023/05/17 10:43:56;;;;;;;5.60;3.47;;;;;;;15.68;48.41;99375.16;4989420;28;103033;-75
2023/05/17 10:46:25;;;;;;;4.63;3.05;;;;;;;14.48;49.53;99376.81;5002589;28;109737;-75
2023/05/17 10:48:57;;;;;;;4.68;3.45;;;;;;;15.47;48.99;99375.09;5003527;28;103055;-76
2023/05/17 10:51:30;;;;;;;7.38;3.53;;;;;;;15.51;49.36;99370.34;4998304;28;102769;-74
2023/05/17 10:54:04;;;;;;;4.80;3.33;;;;;;;15.40;48.35;99376.53;4972414;28;102704;-76
2023/05/17 10:56:33;;;;;;;4.57;3.10;;;;;;;16.35;47.25;99370.31;4994676;28;103405;-75
2023/05/17 10:59:18;;;;;;;4.20;3.15;;;;;;;17.15;46.49;99365.94;5005584;28;106261;-74
2023/05/17 11:01:52;;;;;;;5.75;3.50;;;;;;;15.38;48.85;99374.97;5001005;28;102918;-75
2023/05/17 11:04:22;;;;;;;4.95;3.88;;;;;;;15.15;50.54;99373.31;5007260;28;102696;-68
2023/05/17 11:06:52;;;;;;;4.82;3.25;;;;;;;16.04;48.36;99374.75;4996349;28;104801;-68
2023/05/17 11:09:22;;;;;;;5.30;3.83;;;;;;;15.68;49.31;99377.81;4999481;28;103219;-69
2023/05/17 11:12:13;;;;;;;6.72;3.90;;;;;;;16.29;48.14;99378.84;5001319;28;102714;-68
2023/05/17 11:14:52;;;;;;;5.83;3.30;;;;;;;16.03;48.54;99377.53;4989158;28;103180;-68
2023/05/17 11:17:26;;;;;;;7.63;3.83;;;;;;;15.61;50.65;99382.78;4996343;28;103233;-67
2023/05/17 11:20:08;;;;;;;4.80;3.67;;;;;;;15.25;50.74;99377.75;4983684;28;103361;-68
2023/05/17 11:22:41;;;;;;;6.43;3.78;;;;;;;15.24;52.46;99385.88;5000277;28;103780;-68
2023/05/17 11:25:12;;;;;;;5.03;3.70;;;;;;;15.58;50.41;99375.03;5001690;28;103074;-68
2023/05/17 11:27:45;;;;;;;6.70;3.80;;;;;;;14.59;51.46;99381.31;5006127;28;103279;-67
2023/05/17 11:30:18;;;;;;;5.03;3.10;;;;;;;15.19;51.53;99372.94;5006789;28;103093;-68
2023/05/17 11:32:50;;;;;;;6.28;3.35;;;;;;;15.64;49.64;99368.38;5008827;28;102669;-67
2023/05/17 11:35:19;;;;;;;6.88;3.72;;;;;;;15.33;51.16;99375.31;4970993;28;102983;-66
2023/05/17 11:37:48;;;;;;;5.67;3.03;;;;;;;14.83;50.90;99367.88;4974100;28;106929;-67
2023/05/17 11:40:26;;;;;;;4.80;3.28;;;;;;;14.48;52.45;99366.19;4999666;28;103106;-67
2023/05/17 11:43:14;;;;;;;4.97;3.57;;;;;;;14.44;52.49;99369.19;5005725;28;105828;-67
2023/05/17 11:45:47;;;;;;;5.30;3.38;;;;;;;14.34;52.66;99369.06;5000367;28;102710;-67